sensor_id;sensor_type;location;lat;lon;timestamp;pressure;altitude;pressure_sealevel;temperature;humidity
70046;BME280;57385;41.832;23.494;2022-12-17T00:00:47;91105.28;;;8.56;99.22
70046;BME280;57385;41.832;23.494;2022-12-17T00:02:27;91108.69;;;8.50;99.44
70046;BME280;57385;41.832;23.494;2022-12-17T00:04:07;91101.41;;;8.47;99.89
70046;BME280;57385;41.832;23.494;2022-12-17T00:05:47;91097.09;;;8.47;100.00
70046;BME280;57385;41.832;23.494;2022-12-17T00:07:27;91112.44;;;8.47;100.00
70046;BME280;57385;41.832;23.494;2022-12-17T00:09:07;91118.31;;;8.48;100.00
70046;BME280;57385;41.832;23.494;2022-12-17T00:10:48;91108.31;;;8.46;100.00
70046;BME280;57385;41.832;23.494;2022-12-17T00:12:28;91102.63;;;8.44;99.94
70046;BME280;57385;41.832;23.494;2022-12-17T00:14:08;91107.75;;;8.44;99.93
70046;BME280;57385;41.832;23.494;2022-12-17T00:15:52;91110.50;;;8.43;99.66
70046;BME280;57385;41.832;23.494;2022-12-17T00:17:32;91114.84;;;8.42;99.86
70046;BME280;57385;41.832;23.494;2022-12-17T00:19:13;91126.47;;;8.38;100.00
70046;BME280;57385;41.832;23.494;2022-12-17T00:20:54;91113.31;;;8.35;99.71
70046;BME280;57385;41.832;23.494;2022-12-17T00:22:35;91117.03;;;8.32;99.81
70046;BME280;57385;41.832;23.494;2022-12-17T00:24:15;91125.28;;;8.34;100.00
70046;BME280;57385;41.832;23.494;2022-12-17T00:25:56;91123.34;;;8.36;100.00
70046;BME280;57385;41.832;23.494;2022-12-17T00:27:37;91130.19;;;8.36;100.00
70046;BME280;57385;41.832;23.494;2022-12-17T00:29:18;91122.34;;;8.37;100.00
70046;BME280;57385;41.832;23.494;2022-12-17T00:30:58;91120.56;;;8.38;100.00
70046;BME280;57385;41.832;23.494;2022-12-17T00:32:38;91118.59;;;8.33;100.00
70046;BME280;57385;41.832;23.494;2022-12-17T00:34:18;91124.91;;;8.37;100.00
70046;BME280;57385;41.832;23.494;2022-12-17T00:35:58;91117.41;;;8.36;100.00
70046;BME280;57385;41.832;23.494;2022-12-17T00:37:39;91106.81;;;8.32;100.00
70046;BME280;57385;41.832;23.494;2022-12-17T00:39:19;91109.38;;;8.32;99.97
70046;BME280;57385;41.832;23.494;2022-12-17T00:40:59;91120.97;;;8.35;100.00
70046;BME280;57385;41.832;23.494;2022-12-17T00:42:39;91118.03;;;8.31;100.00
70046;BME280;57385;41.832;23.494;2022-12-17T00:44:21;91100.34;;;8.29;100.00
70046;BME280;57385;41.832;23.494;2022-12-17T00:46:01;91119.59;;;8.32;100.00
70046;BME280;57385;41.832;23.494;2022-12-17T00:47:41;91107.59;;;8.32;100.00
70046;BME280;57385;41.832;23.494;2022-12-17T00:49:21;91110.94;;;8.33;100.00
70046;BME280;57385;41.832;23.494;2022-12-17T00:51:02;91109.75;;;8.36;100.00
70046;BME280;57385;41.832;23.494;2022-12-17T00:52:43;91109.75;;;8.36;100.00
70046;BME280;57385;41.832;23.494;2022-12-17T00:54:23;91099.53;;;8.36;100.00
70046;BME280;57385;41.832;23.494;2022-12-17T00:56:05;91109.75;;;8.36;100.00
70046;BME280;57385;41.832;23.494;2022-12-17T00:57:45;91111.34;;;8.37;100.00
70046;BME280;57385;41.832;23.494;2022-12-17T00:59:25;91100.13;;;8.38;100.00
70046;BME280;57385;41.832;23.494;2022-12-17T01:01:06;91105.25;;;8.31;100.00
70046;BME280;57385;41.832;23.494;2022-12-17T01:02:46;91110.75;;;8.35;100.00
70046;BME280;57385;41.832;23.494;2022-12-17T01:04:27;91114.09;;;8.35;99.93
70046;BME280;57385;41.832;23.494;2022-12-17T01:06:07;91098.56;;;8.30;100.00
70046;BME280;57385;41.832;23.494;2022-12-17T01:07:50;91089.56;;;8.27;100.00
70046;BME280;57385;41.832;23.494;2022-12-17T01:09:30;91110.94;;;8.33;100.00
70046;BME280;57385;41.832;23.494;2022-12-17T01:11:10;91101.50;;;8.33;100.00
70046;BME280;57385;41.832;23.494;2022-12-17T01:12:51;91092.69;;;8.29;100.00
70046;BME280;57385;41.832;23.494;2022-12-17T01:14:31;91090.53;;;8.26;100.00
70046;BME280;57385;41.832;23.494;2022-12-17T01:16:13;91101.53;;;8.27;100.00
70046;BME280;57385;41.832;23.494;2022-12-17T01:17:53;91093.31;;;8.25;100.00
70046;BME280;57385;41.832;23.494;2022-12-17T01:19:34;91083.31;;;8.23;99.93
70046;BME280;57385;41.832;23.494;2022-12-17T01:21:17;91091.34;;;8.20;99.94
70046;BME280;57385;41.832;23.494;2022-12-17T01:22:57;91097.84;;;8.23;99.96
70046;BME280;57385;41.832;23.494;2022-12-17T01:24:37;91096.25;;;8.22;100.00
70046;BME280;57385;41.832;23.494;2022-12-17T01:26:17;91089.41;;;8.22;100.00
70046;BME280;57385;41.832;23.494;2022-12-17T01:27:57;91084.28;;;8.22;100.00
70046;BME280;57385;41.832;23.494;2022-12-17T01:29:37;91095.28;;;8.23;99.76
70046;BME280;57385;41.832;23.494;2022-12-17T01:31:18;91102.34;;;8.21;99.59
70046;BME280;57385;41.832;23.494;2022-12-17T01:33:03;91094.91;;;8.19;99.77
70046;BME280;57385;41.832;23.494;2022-12-17T01:34:44;91079.22;;;8.16;100.00
70046;BME280;57385;41.832;23.494;2022-12-17T01:36:24;91084.13;;;8.17;100.00
70046;BME280;57385;41.832;23.494;2022-12-17T01:38:11;91101.00;;;8.18;99.82
70046;BME280;57385;41.832;23.494;2022-12-17T01:39:51;91094.19;;;8.12;99.92
70046;BME280;57385;41.832;23.494;2022-12-17T01:41:31;91085.72;;;8.12;99.60
70046;BME280;57385;41.832;23.494;2022-12-17T01:43:13;91082.59;;;8.10;99.51
70046;BME280;57385;41.832;23.494;2022-12-17T01:44:54;91083.19;;;8.05;100.00
70046;BME280;57385;41.832;23.494;2022-12-17T01:46:38;91092.63;;;8.11;99.76
70046;BME280;57385;41.832;23.494;2022-12-17T01:48:29;91095.16;;;8.11;100.00
70046;BME280;57385;41.832;23.494;2022-12-17T01:50:12;91090.06;;;8.11;100.00
70046;BME280;57385;41.832;23.494;2022-12-17T01:51:54;91082.41;;;8.11;99.79
70046;BME280;57385;41.832;23.494;2022-12-17T01:53:37;91081.63;;;8.11;100.00
70046;BME280;57385;41.832;23.494;2022-12-17T01:55:20;91080.44;;;8.07;100.00
70046;BME280;57385;41.832;23.494;2022-12-17T01:57:01;91088.28;;;8.12;100.00
70046;BME280;57385;41.832;23.494;2022-12-17T01:58:43;91092.41;;;8.13;100.00
70046;BME280;57385;41.832;23.494;2022-12-17T02:00:23;91076.50;;;8.11;100.00
70046;BME280;57385;41.832;23.494;2022-12-17T02:02:04;91077.69;;;8.08;100.00
70046;BME280;57385;41.832;23.494;2022-12-17T02:03:44;91081.63;;;8.11;100.00
70046;BME280;57385;41.832;23.494;2022-12-17T02:07:37;91095.16;;;8.11;100.00
70046;BME280;57385;41.832;23.494;2022-12-17T02:09:24;91073.56;;;8.07;100.00
70046;BME280;57385;41.832;23.494;2022-12-17T02:13:22;91099.06;;;8.14;100.00
70046;BME280;57385;41.832;23.494;2022-12-17T02:17:01;91086.66;;;8.17;100.00
70046;BME280;57385;41.832;23.494;2022-12-17T02:18:48;91092.13;;;8.21;99.96
70046;BME280;57385;41.832;23.494;2022-12-17T02:20:41;91090.56;;;8.20;100.00
70046;BME280;57385;41.832;23.494;2022-12-17T02:25:05;91092.75;;;8.23;100.00
70046;BME280;57385;41.832;23.494;2022-12-17T02:28:11;91082.69;;;8.21;99.59
70046;BME280;57385;41.832;23.494;2022-12-17T02:30:01;91086.63;;;8.24;99.91
70046;BME280;57385;41.832;23.494;2022-12-17T02:31:44;91095.28;;;8.23;99.43
70046;BME280;57385;41.832;23.494;2022-12-17T02:33:27;91085.06;;;8.23;99.64
70046;BME280;57385;41.832;23.494;2022-12-17T02:35:21;91068.16;;;8.22;99.70
70046;BME280;57385;41.832;23.494;2022-12-17T02:37:03;91077.81;;;8.20;99.89
70046;BME280;57385;41.832;23.494;2022-12-17T02:38:43;91094.50;;;8.22;99.78
70046;BME280;57385;41.832;23.494;2022-12-17T02:40:24;91083.31;;;8.23;99.43
70046;BME280;57385;41.832;23.494;2022-12-17T02:42:06;91075.03;;;8.21;99.90
70046;BME280;57385;41.832;23.494;2022-12-17T02:43:49;91066.81;;;8.19;99.75
70046;BME280;57385;41.832;23.494;2022-12-17T02:45:29;91081.75;;;8.22;99.94
70046;BME280;57385;41.832;23.494;2022-12-17T02:47:11;91071.69;;;8.21;99.71
70046;BME280;57385;41.832;23.494;2022-12-17T02:48:53;91080.13;;;8.28;99.82
70046;BME280;57385;41.832;23.494;2022-12-17T02:50:36;91078.34;;;8.28;100.00
70046;BME280;57385;41.832;23.494;2022-12-17T02:52:18;91071.66;;;8.27;99.58
70046;BME280;57385;41.832;23.494;2022-12-17T02:54:02;91071.66;;;8.27;99.69
70046;BME280;57385;41.832;23.494;2022-12-17T02:55:43;91082.03;;;8.32;100.00
70046;BME280;57385;41.832;23.494;2022-12-17T02:57:26;91068.47;;;8.32;99.67
70046;BME280;57385;41.832;23.494;2022-12-17T02:59:14;91072.03;;;8.31;99.30
70046;BME280;57385;41.832;23.494;2022-12-17T03:01:02;91073.19;;;8.35;99.70
70046;BME280;57385;41.832;23.494;2022-12-17T03:02:43;91063.75;;;8.36;99.35
70046;BME280;57385;41.832;23.494;2022-12-17T03:04:34;91062.59;;;8.38;99.33
70046;BME280;57385;41.832;23.494;2022-12-17T03:06:14;91047.47;;;8.37;99.17
70046;BME280;57385;41.832;23.494;2022-12-17T03:07:54;91050.59;;;8.39;99.22
70046;BME280;57385;41.832;23.494;2022-12-17T03:09:34;91044.13;;;8.36;99.35
70046;BME280;57385;41.832;23.494;2022-12-17T03:11:16;91040.59;;;8.37;99.60
70046;BME280;57385;41.832;23.494;2022-12-17T03:12:56;91033.69;;;8.38;99.49
70046;BME280;57385;41.832;23.494;2022-12-17T03:14:37;91045.88;;;8.36;99.28
70046;BME280;57385;41.832;23.494;2022-12-17T03:16:17;91033.34;;;8.27;99.57
70046;BME280;57385;41.832;23.494;2022-12-17T03:17:58;91038.59;;;8.32;99.75
70046;BME280;57385;41.832;23.494;2022-12-17T03:19:38;91033.13;;;8.29;99.77
70046;BME280;57385;41.832;23.494;2022-12-17T03:21:19;91043.34;;;8.29;100.00
70046;BME280;57385;41.832;23.494;2022-12-17T03:23:07;91051.81;;;8.29;99.62
70046;BME280;57385;41.832;23.494;2022-12-17T03:24:47;91038.25;;;8.29;99.73
70046;BME280;57385;41.832;23.494;2022-12-17T03:26:27;91023.13;;;8.27;99.66
70046;BME280;57385;41.832;23.494;2022-12-17T03:28:18;91021.00;;;8.24;99.81
70046;BME280;57385;41.832;23.494;2022-12-17T03:29:58;91039.25;;;8.28;99.73
70046;BME280;57385;41.832;23.494;2022-12-17T03:31:39;91053.56;;;8.29;99.65
70046;BME280;57385;41.832;23.494;2022-12-17T03:33:19;91056.56;;;8.26;99.76
70046;BME280;57385;41.832;23.494;2022-12-17T03:34:59;91050.25;;;8.28;100.00
70046;BME280;57385;41.832;23.494;2022-12-17T03:36:40;91051.22;;;8.27;99.96
70046;BME280;57385;41.832;23.494;2022-12-17T03:38:20;91047.13;;;8.26;99.70
70046;BME280;57385;41.832;23.494;2022-12-17T03:40:00;91044.56;;;8.26;99.99
70046;BME280;57385;41.832;23.494;2022-12-17T03:41:40;91048.69;;;8.27;100.00
70046;BME280;57385;41.832;23.494;2022-12-17T03:43:20;91040.44;;;8.25;99.80
70046;BME280;57385;41.832;23.494;2022-12-17T03:45:00;91040.66;;;8.24;99.72
70046;BME280;57385;41.832;23.494;2022-12-17T03:46:40;91034.75;;;8.23;99.70
70046;BME280;57385;41.832;23.494;2022-12-17T03:48:20;91044.59;;;8.20;100.00
70046;BME280;57385;41.832;23.494;2022-12-17T03:50:00;91046.38;;;8.19;99.94
70046;BME280;57385;41.832;23.494;2022-12-17T03:51:41;91038.50;;;8.21;100.00
70046;BME280;57385;41.832;23.494;2022-12-17T03:53:21;91038.69;;;8.19;100.00
70046;BME280;57385;41.832;23.494;2022-12-17T03:55:02;91030.91;;;8.14;100.00
70046;BME280;57385;41.832;23.494;2022-12-17T03:56:42;91039.47;;;8.20;100.00
70046;BME280;57385;41.832;23.494;2022-12-17T03:58:22;91033.59;;;8.19;100.00
70046;BME280;57385;41.832;23.494;2022-12-17T04:00:03;91030.06;;;8.20;100.00
70046;BME280;57385;41.832;23.494;2022-12-17T04:01:43;91019.25;;;8.18;100.00
70046;BME280;57385;41.832;23.494;2022-12-17T04:03:24;91024.16;;;8.20;100.00
70046;BME280;57385;41.832;23.494;2022-12-17T04:05:05;91033.38;;;8.21;100.00
70046;BME280;57385;41.832;23.494;2022-12-17T04:06:45;91033.59;;;8.19;100.00
70046;BME280;57385;41.832;23.494;2022-12-17T04:08:25;91031.63;;;8.21;100.00
70046;BME280;57385;41.832;23.494;2022-12-17T04:10:06;91027.69;;;8.19;100.00
70046;BME280;57385;41.832;23.494;2022-12-17T04:11:46;91017.34;;;8.14;100.00
70046;BME280;57385;41.832;23.494;2022-12-17T04:13:26;91019.47;;;8.17;100.00
70046;BME280;57385;41.832;23.494;2022-12-17T04:15:08;91014.94;;;8.19;100.00
70046;BME280;57385;41.832;23.494;2022-12-17T04:16:48;91034.94;;;8.22;100.00
70046;BME280;57385;41.832;23.494;2022-12-17T04:18:39;91034.81;;;8.17;100.00
70046;BME280;57385;41.832;23.494;2022-12-17T04:20:20;91021.47;;;8.15;100.00
70046;BME280;57385;41.832;23.494;2022-12-17T04:22:00;91017.91;;;8.16;100.00
70046;BME280;57385;41.832;23.494;2022-12-17T04:23:41;91020.09;;;8.12;100.00
70046;BME280;57385;41.832;23.494;2022-12-17T04:25:21;91028.91;;;8.16;100.00
70046;BME280;57385;41.832;23.494;2022-12-17T04:27:01;91035.56;;;8.17;100.00
70046;BME280;57385;41.832;23.494;2022-12-17T04:28:42;91034.03;;;8.16;100.00
70046;BME280;57385;41.832;23.494;2022-12-17T04:30:22;91044.22;;;8.16;100.00
70046;BME280;57385;41.832;23.494;2022-12-17T04:32:03;91029.69;;;8.17;100.00
70046;BME280;57385;41.832;23.494;2022-12-17T04:33:43;91031.03;;;8.19;100.00
70046;BME280;57385;41.832;23.494;2022-12-17T04:35:23;91027.50;;;8.20;100.00
70046;BME280;57385;41.832;23.494;2022-12-17T04:37:03;91033.56;;;8.26;100.00
70046;BME280;57385;41.832;23.494;2022-12-17T04:38:43;91037.09;;;8.25;100.00
70046;BME280;57385;41.832;23.494;2022-12-17T04:40:24;91029.84;;;8.22;100.00
70046;BME280;57385;41.832;23.494;2022-12-17T04:42:03;91037.31;;;8.23;100.00
70046;BME280;57385;41.832;23.494;2022-12-17T04:43:44;91047.72;;;8.22;100.00
70046;BME280;57385;41.832;23.494;2022-12-17T04:45:24;91056.56;;;8.26;100.00
70046;BME280;57385;41.832;23.494;2022-12-17T04:47:04;91047.13;;;8.26;100.00
70046;BME280;57385;41.832;23.494;2022-12-17T04:48:44;91028.09;;;8.22;100.00
70046;BME280;57385;41.832;23.494;2022-12-17T04:50:24;91031.44;;;8.23;100.00
70046;BME280;57385;41.832;23.494;2022-12-17T04:52:04;91027.34;;;8.15;100.00
70046;BME280;57385;41.832;23.494;2022-12-17T04:53:44;91042.59;;;8.22;100.00
70046;BME280;57385;41.832;23.494;2022-12-17T04:55:24;91052.44;;;8.25;100.00
70046;BME280;57385;41.832;23.494;2022-12-17T04:57:05;91035.53;;;8.24;100.00
70046;BME280;57385;41.832;23.494;2022-12-17T04:58:46;91055.97;;;8.24;100.00
70046;BME280;57385;41.832;23.494;2022-12-17T05:00:43;91051.09;;;8.22;100.00
70046;BME280;57385;41.832;23.494;2022-12-17T05:02:23;91030.66;;;8.22;100.00
70046;BME280;57385;41.832;23.494;2022-12-17T05:04:04;91045.56;;;8.25;100.00
70046;BME280;57385;41.832;23.494;2022-12-17T05:05:44;91037.72;;;8.20;100.00
70046;BME280;57385;41.832;23.494;2022-12-17T05:07:24;91034.16;;;8.21;100.00
70046;BME280;57385;41.832;23.494;2022-12-17T05:09:15;91036.31;;;8.24;100.00
70046;BME280;57385;41.832;23.494;2022-12-17T05:11:03;91050.25;;;8.28;100.00
70046;BME280;57385;41.832;23.494;2022-12-17T05:12:46;91036.91;;;8.26;100.00
70046;BME280;57385;41.832;23.494;2022-12-17T05:14:26;91045.34;;;8.27;100.00
70046;BME280;57385;41.832;23.494;2022-12-17T05:16:07;91043.34;;;8.29;100.00
70046;BME280;57385;41.832;23.494;2022-12-17T05:17:50;91064.56;;;8.29;99.92
70046;BME280;57385;41.832;23.494;2022-12-17T05:19:31;91051.22;;;8.27;100.00
70046;BME280;57385;41.832;23.494;2022-12-17T05:21:11;91058.47;;;8.30;100.00
70046;BME280;57385;41.832;23.494;2022-12-17T05:22:54;91054.34;;;8.29;99.95
70046;BME280;57385;41.832;23.494;2022-12-17T05:24:34;91039.44;;;8.26;99.98
70046;BME280;57385;41.832;23.494;2022-12-17T05:26:18;91044.13;;;8.29;99.99
70046;BME280;57385;41.832;23.494;2022-12-17T05:27:59;91052.59;;;8.30;100.00
70046;BME280;57385;41.832;23.494;2022-12-17T05:29:39;91052.00;;;8.28;99.99
70046;BME280;57385;41.832;23.494;2022-12-17T05:31:20;91075.56;;;8.30;100.00
70046;BME280;57385;41.832;23.494;2022-12-17T05:33:01;91078.91;;;8.30;100.00
70046;BME280;57385;41.832;23.494;2022-12-17T05:34:41;91073.22;;;8.28;100.00
70046;BME280;57385;41.832;23.494;2022-12-17T05:36:21;91072.09;;;8.24;99.93
70046;BME280;57385;41.832;23.494;2022-12-17T05:38:03;91073.44;;;8.27;99.84
70046;BME280;57385;41.832;23.494;2022-12-17T05:39:44;91063.78;;;8.29;99.88
70046;BME280;57385;41.832;23.494;2022-12-17T05:41:31;91090.13;;;8.29;99.88
70046;BME280;57385;41.832;23.494;2022-12-17T05:43:12;91083.03;;;8.31;100.00
70046;BME280;57385;41.832;23.494;2022-12-17T05:44:52;91092.84;;;8.35;99.83
70046;BME280;57385;41.832;23.494;2022-12-17T05:46:32;91087.56;;;8.36;99.88
70046;BME280;57385;41.832;23.494;2022-12-17T05:48:12;91082.47;;;8.36;99.67
70046;BME280;57385;41.832;23.494;2022-12-17T05:49:53;91090.91;;;8.37;99.91
70046;BME280;57385;41.832;23.494;2022-12-17T05:51:32;91107.38;;;8.41;100.00
70046;BME280;57385;41.832;23.494;2022-12-17T05:53:13;91094.03;;;8.39;99.85
70046;BME280;57385;41.832;23.494;2022-12-17T05:54:54;91097.97;;;8.35;99.94
70046;BME280;57385;41.832;23.494;2022-12-17T05:56:34;91104.03;;;8.40;99.80
70046;BME280;57385;41.832;23.494;2022-12-17T05:58:14;91097.78;;;8.36;99.52
70046;BME280;57385;41.832;23.494;2022-12-17T05:59:54;91109.16;;;8.40;99.25
70046;BME280;57385;41.832;23.494;2022-12-17T06:01:34;91102.69;;;8.38;99.46
70046;BME280;57385;41.832;23.494;2022-12-17T06:03:14;91109.75;;;8.36;99.13
70046;BME280;57385;41.832;23.494;2022-12-17T06:04:55;91112.53;;;8.34;99.14
70046;BME280;57385;41.832;23.494;2022-12-17T06:06:35;91092.25;;;8.32;98.58
70046;BME280;57385;41.832;23.494;2022-12-17T06:08:15;91090.34;;;8.28;98.58
70046;BME280;57385;41.832;23.494;2022-12-17T06:09:56;91092.53;;;8.24;98.88
70046;BME280;57385;41.832;23.494;2022-12-17T06:11:36;91093.66;;;8.28;98.66
70046;BME280;57385;41.832;23.494;2022-12-17T06:13:23;91105.25;;;8.31;99.00
70046;BME280;57385;41.832;23.494;2022-12-17T06:15:03;91098.56;;;8.30;98.82
70046;BME280;57385;41.832;23.494;2022-12-17T06:16:44;91083.66;;;8.27;98.25
70046;BME280;57385;41.832;23.494;2022-12-17T06:18:24;91088.13;;;8.31;98.76
70046;BME280;57385;41.832;23.494;2022-12-17T06:20:05;91080.25;;;8.33;98.94
70046;BME280;57385;41.832;23.494;2022-12-17T06:21:46;91074.78;;;8.29;98.70
70046;BME280;57385;41.832;23.494;2022-12-17T06:23:26;91095.03;;;8.31;98.34
70046;BME280;57385;41.832;23.494;2022-12-17T06:25:07;91089.13;;;8.30;98.16
70046;BME280;57385;41.832;23.494;2022-12-17T06:26:48;91090.13;;;8.29;98.30
70046;BME280;57385;41.832;23.494;2022-12-17T06:28:28;91100.72;;;8.33;98.63
70046;BME280;57385;41.832;23.494;2022-12-17T06:30:09;91094.81;;;8.32;98.19
70046;BME280;57385;41.832;23.494;2022-12-17T06:31:50;91108.19;;;8.35;98.34
70046;BME280;57385;41.832;23.494;2022-12-17T06:33:30;91107.41;;;8.34;98.08
70046;BME280;57385;41.832;23.494;2022-12-17T06:35:10;91091.75;;;8.24;98.34
70046;BME280;57385;41.832;23.494;2022-12-17T06:36:50;91098.78;;;8.28;98.65
70046;BME280;57385;41.832;23.494;2022-12-17T06:38:30;91111.34;;;8.30;98.60
70046;BME280;57385;41.832;23.494;2022-12-17T06:40:11;91114.31;;;8.27;98.63
70046;BME280;57385;41.832;23.494;2022-12-17T06:41:51;91101.19;;;8.23;98.75
70046;BME280;57385;41.832;23.494;2022-12-17T06:43:31;91107.44;;;8.27;98.38
70046;BME280;57385;41.832;23.494;2022-12-17T06:45:11;91105.09;;;8.26;98.71
70046;BME280;57385;41.832;23.494;2022-12-17T06:46:51;91099.56;;;8.29;98.84
70046;BME280;57385;41.832;23.494;2022-12-17T06:48:31;91089.34;;;8.29;98.38
70046;BME280;57385;41.832;23.494;2022-12-17T06:50:11;91093.09;;;8.26;98.68
70046;BME280;57385;41.832;23.494;2022-12-17T06:51:52;91094.25;;;8.30;98.82
70046;BME280;57385;41.832;23.494;2022-12-17T06:53:32;91107.19;;;8.36;98.53
70046;BME280;57385;41.832;23.494;2022-12-17T06:55:12;91094.41;;;8.36;98.56
70046;BME280;57385;41.832;23.494;2022-12-17T06:56:52;91083.81;;;8.39;98.72
70046;BME280;57385;41.832;23.494;2022-12-17T06:58:33;91071.38;;;8.42;98.75
70046;BME280;57385;41.832;23.494;2022-12-17T07:00:16;91096.16;;;8.42;98.76
70046;BME280;57385;41.832;23.494;2022-12-17T07:01:57;91110.44;;;8.49;98.69
70046;BME280;57385;41.832;23.494;2022-12-17T07:03:37;91119.84;;;8.55;98.66
70046;BME280;57385;41.832;23.494;2022-12-17T07:05:17;91128.50;;;8.54;98.35
70046;BME280;57385;41.832;23.494;2022-12-17T07:07:00;91106.72;;;8.52;98.54
70046;BME280;57385;41.832;23.494;2022-12-17T07:08:40;91131.44;;;8.58;98.02
70046;BME280;57385;41.832;23.494;2022-12-17T07:10:21;91139.31;;;8.56;98.03
70046;BME280;57385;41.832;23.494;2022-12-17T07:12:01;91132.28;;;8.52;97.93
70046;BME280;57385;41.832;23.494;2022-12-17T07:13:41;91120.84;;;8.54;98.26
70046;BME280;57385;41.832;23.494;2022-12-17T07:15:22;91111.97;;;8.57;98.00
70046;BME280;57385;41.832;23.494;2022-12-17T07:17:02;91128.84;;;8.65;98.02
70046;BME280;57385;41.832;23.494;2022-12-17T07:18:42;91153.75;;;8.69;97.88
70046;BME280;57385;41.832;23.494;2022-12-17T07:20:22;91146.09;;;8.69;97.90
70046;BME280;57385;41.832;23.494;2022-12-17T07:22:02;91130.69;;;8.76;97.86
70046;BME280;57385;41.832;23.494;2022-12-17T07:23:43;91129.97;;;8.69;97.64
70046;BME280;57385;41.832;23.494;2022-12-17T07:25:23;91110.44;;;8.74;97.42
70046;BME280;57385;41.832;23.494;2022-12-17T07:27:06;91142.88;;;8.80;97.63
70046;BME280;57385;41.832;23.494;2022-12-17T07:28:46;91170.22;;;8.80;97.77
70046;BME280;57385;41.832;23.494;2022-12-17T07:30:26;91147.41;;;8.78;97.83
70046;BME280;57385;41.832;23.494;2022-12-17T07:32:13;91153.31;;;8.79;98.17
70046;BME280;57385;41.832;23.494;2022-12-17T07:33:53;91121.47;;;8.75;98.41
70046;BME280;57385;41.832;23.494;2022-12-17T07:35:33;91128.41;;;8.68;98.33
70046;BME280;57385;41.832;23.494;2022-12-17T07:37:13;91147.25;;;8.73;98.49
70046;BME280;57385;41.832;23.494;2022-12-17T07:38:53;91150.38;;;8.75;98.50
70046;BME280;57385;41.832;23.494;2022-12-17T07:40:34;91147.00;;;8.81;98.33
70046;BME280;57385;41.832;23.494;2022-12-17T07:42:14;91131.75;;;8.93;98.01
70046;BME280;57385;41.832;23.494;2022-12-17T07:43:54;91119.19;;;8.92;97.95
70046;BME280;57385;41.832;23.494;2022-12-17T07:45:34;91127.13;;;9.02;97.51
70046;BME280;57385;41.832;23.494;2022-12-17T07:47:14;91155.56;;;9.12;97.36
70046;BME280;57385;41.832;23.494;2022-12-17T07:48:55;91144.78;;;9.10;97.26
70046;BME280;57385;41.832;23.494;2022-12-17T07:50:35;91141.56;;;9.14;97.02
70046;BME280;57385;41.832;23.494;2022-12-17T07:52:15;91133.00;;;9.27;96.54
70046;BME280;57385;41.832;23.494;2022-12-17T07:53:55;91133.78;;;9.28;96.75
70046;BME280;57385;41.832;23.494;2022-12-17T07:55:35;91136.34;;;9.28;96.35
70046;BME280;57385;41.832;23.494;2022-12-17T07:57:15;91138.69;;;9.29;95.74
70046;BME280;57385;41.832;23.494;2022-12-17T07:58:55;91164.06;;;9.31;96.01
70046;BME280;57385;41.832;23.494;2022-12-17T08:00:35;91145.09;;;9.38;96.27
70046;BME280;57385;41.832;23.494;2022-12-17T08:02:15;91152.00;;;9.56;95.90
70046;BME280;57385;41.832;23.494;2022-12-17T08:03:56;91130.59;;;9.50;96.00
70046;BME280;57385;41.832;23.494;2022-12-17T08:05:37;91138.75;;;9.59;95.76
70046;BME280;57385;41.832;23.494;2022-12-17T08:07:18;91133.28;;;9.74;95.31
70046;BME280;57385;41.832;23.494;2022-12-17T08:08:58;91145.50;;;9.72;95.22
70046;BME280;57385;41.832;23.494;2022-12-17T08:10:39;91148.44;;;9.57;95.29
70046;BME280;57385;41.832;23.494;2022-12-17T08:12:19;91137.41;;;9.57;95.83
70046;BME280;57385;41.832;23.494;2022-12-17T08:13:58;91144.47;;;9.61;95.48
70046;BME280;57385;41.832;23.494;2022-12-17T08:15:39;91138.13;;;9.64;95.32
70046;BME280;57385;41.832;23.494;2022-12-17T08:17:19;91150.84;;;9.70;95.14
70046;BME280;57385;41.832;23.494;2022-12-17T08:19:00;91147.28;;;9.71;94.66
70046;BME280;57385;41.832;23.494;2022-12-17T08:20:40;91133.28;;;9.74;94.96
70046;BME280;57385;41.832;23.494;2022-12-17T08:22:20;91144.88;;;9.76;94.66
70046;BME280;57385;41.832;23.494;2022-12-17T08:24:00;91130.16;;;9.90;94.10
70046;BME280;57385;41.832;23.494;2022-12-17T08:25:40;91144.56;;;9.85;93.75
70046;BME280;57385;41.832;23.494;2022-12-17T08:27:21;91160.00;;;10.15;93.69
70046;BME280;57385;41.832;23.494;2022-12-17T08:29:02;91154.44;;;10.18;93.59
70046;BME280;57385;41.832;23.494;2022-12-17T08:30:49;91118.78;;;10.16;93.30
70046;BME280;57385;41.832;23.494;2022-12-17T08:32:29;91132.53;;;10.03;93.60
70046;BME280;57385;41.832;23.494;2022-12-17T08:34:10;91144.00;;;10.01;93.78
70046;BME280;57385;41.832;23.494;2022-12-17T08:35:57;91151.88;;;9.99;93.95
70046;BME280;57385;41.832;23.494;2022-12-17T08:37:38;91143.28;;;9.94;94.18
70046;BME280;57385;41.832;23.494;2022-12-17T08:39:19;91114.13;;;9.95;94.41
70046;BME280;57385;41.832;23.494;2022-12-17T08:41:00;91131.16;;;9.89;94.43
70046;BME280;57385;41.832;23.494;2022-12-17T08:42:40;91141.59;;;9.88;94.38
70046;BME280;57385;41.832;23.494;2022-12-17T08:44:37;91133.00;;;9.82;94.66
70046;BME280;57385;41.832;23.494;2022-12-17T08:46:18;91137.75;;;9.78;94.95
70046;BME280;57385;41.832;23.494;2022-12-17T08:48:06;91135.06;;;9.73;95.22
70046;BME280;57385;41.832;23.494;2022-12-17T08:49:46;91112.09;;;9.67;95.28
70046;BME280;57385;41.832;23.494;2022-12-17T08:51:27;91121.66;;;9.60;95.63
70046;BME280;57385;41.832;23.494;2022-12-17T08:53:07;91113.97;;;9.60;95.52
70046;BME280;57385;41.832;23.494;2022-12-17T08:54:53;91118.50;;;9.76;95.40
70046;BME280;57385;41.832;23.494;2022-12-17T08:56:34;91157.31;;;9.73;95.52
70046;BME280;57385;41.832;23.494;2022-12-17T08:58:14;91155.28;;;9.63;96.04
70046;BME280;57385;41.832;23.494;2022-12-17T08:59:54;91141.75;;;9.56;96.51
70046;BME280;57385;41.832;23.494;2022-12-17T09:01:34;91109.25;;;9.57;96.75
70046;BME280;57385;41.832;23.494;2022-12-17T09:03:15;91088.34;;;9.60;96.33